sensor_id;sensor_type;location;lat;lon;timestamp;P1;durP1;ratioP1;P2;durP2;ratioP2
60464;SDS011;46314;52.392;9.758;2022-08-16T00:02:19;14.85;;;13.25;;
60464;SDS011;46314;52.392;9.758;2022-08-16T00:04:46;14.70;;;13.40;;
60464;SDS011;46314;52.392;9.758;2022-08-16T00:07:16;14.60;;;13.20;;
60464;SDS011;46314;52.392;9.758;2022-08-16T00:09:42;14.00;;;12.60;;
60464;SDS011;46314;52.392;9.758;2022-08-16T00:12:09;13.80;;;12.40;;
60464;SDS011;46314;52.392;9.758;2022-08-16T00:14:35;13.82;;;12.50;;
60464;SDS011;46314;52.392;9.758;2022-08-16T00:17:02;15.43;;;12.73;;
60464;SDS011;46314;52.392;9.758;2022-08-16T00:19:44;14.30;;;12.90;;
60464;SDS011;46314;52.392;9.758;2022-08-16T00:22:16;15.05;;;12.27;;
60464;SDS011;46314;52.392;9.758;2022-08-16T00:24:45;15.77;;;14.15;;
60464;SDS011;46314;52.392;9.758;2022-08-16T00:27:16;14.60;;;12.50;;
60464;SDS011;46314;52.392;9.758;2022-08-16T00:29:43;13.02;;;11.82;;
60464;SDS011;46314;52.392;9.758;2022-08-16T00:32:11;13.63;;;12.27;;
60464;SDS011;46314;52.392;9.758;2022-08-16T00:34:43;13.43;;;12.07;;
60464;SDS011;46314;52.392;9.758;2022-08-16T00:37:19;14.45;;;13.02;;
60464;SDS011;46314;52.392;9.758;2022-08-16T00:39:50;13.50;;;11.95;;
60464;SDS011;46314;52.392;9.758;2022-08-16T00:42:28;13.23;;;11.90;;
60464;SDS011;46314;52.392;9.758;2022-08-16T00:45:08;14.32;;;12.95;;
60464;SDS011;46314;52.392;9.758;2022-08-16T00:47:50;14.93;;;12.60;;
60464;SDS011;46314;52.392;9.758;2022-08-16T00:50:19;14.73;;;11.70;;
60464;SDS011;46314;52.392;9.758;2022-08-16T00:53:02;14.45;;;13.20;;
60464;SDS011;46314;52.392;9.758;2022-08-16T00:55:36;14.82;;;13.38;;
60464;SDS011;46314;52.392;9.758;2022-08-16T00:58:05;13.52;;;12.35;;
60464;SDS011;46314;52.392;9.758;2022-08-16T01:00:41;15.07;;;13.38;;
60464;SDS011;46314;52.392;9.758;2022-08-16T01:03:19;13.50;;;12.20;;
60464;SDS011;46314;52.392;9.758;2022-08-16T01:05:57;14.90;;;13.52;;
60464;SDS011;46314;52.392;9.758;2022-08-16T01:08:24;14.18;;;12.63;;
60464;SDS011;46314;52.392;9.758;2022-08-16T01:11:02;13.90;;;12.43;;
60464;SDS011;46314;52.392;9.758;2022-08-16T01:13:32;14.73;;;13.23;;
60464;SDS011;46314;52.392;9.758;2022-08-16T01:16:12;13.63;;;12.32;;
60464;SDS011;46314;52.392;9.758;2022-08-16T01:18:49;13.70;;;12.40;;
60464;SDS011;46314;52.392;9.758;2022-08-16T01:27:18;14.80;;;13.18;;
60464;SDS011;46314;52.392;9.758;2022-08-16T01:32:25;13.88;;;12.50;;
60464;SDS011;46314;52.392;9.758;2022-08-16T01:34:59;13.88;;;12.27;;
60464;SDS011;46314;52.392;9.758;2022-08-16T01:37:25;14.05;;;12.65;;
60464;SDS011;46314;52.392;9.758;2022-08-16T01:40:01;17.75;;;13.50;;
60464;SDS011;46314;52.392;9.758;2022-08-16T01:42:32;14.52;;;13.13;;
60464;SDS011;46314;52.392;9.758;2022-08-16T01:44:59;14.10;;;12.70;;
60464;SDS011;46314;52.392;9.758;2022-08-16T01:47:26;14.32;;;12.82;;
60464;SDS011;46314;52.392;9.758;2022-08-16T01:49:54;12.50;;;11.25;;
60464;SDS011;46314;52.392;9.758;2022-08-16T01:52:41;13.77;;;12.38;;
60464;SDS011;46314;52.392;9.758;2022-08-16T01:55:11;13.63;;;12.43;;
60464;SDS011;46314;52.392;9.758;2022-08-16T01:57:39;14.10;;;12.80;;
60464;SDS011;46314;52.392;9.758;2022-08-16T02:00:19;14.85;;;11.95;;
60464;SDS011;46314;52.392;9.758;2022-08-16T02:02:54;14.77;;;12.65;;
60464;SDS011;46314;52.392;9.758;2022-08-16T02:05:21;12.98;;;11.60;;
60464;SDS011;46314;52.392;9.758;2022-08-16T02:07:49;13.73;;;12.32;;
60464;SDS011;46314;52.392;9.758;2022-08-16T02:10:17;15.38;;;13.75;;
60464;SDS011;46314;52.392;9.758;2022-08-16T02:12:45;16.50;;;13.52;;
60464;SDS011;46314;52.392;9.758;2022-08-16T02:15:18;14.52;;;13.00;;
60464;SDS011;46314;52.392;9.758;2022-08-16T02:17:50;13.45;;;12.23;;
60464;SDS011;46314;52.392;9.758;2022-08-16T02:20:18;14.13;;;12.75;;
60464;SDS011;46314;52.392;9.758;2022-08-16T02:22:51;14.90;;;12.60;;
60464;SDS011;46314;52.392;9.758;2022-08-16T02:25:20;11.93;;;10.75;;
60464;SDS011;46314;52.392;9.758;2022-08-16T02:27:46;13.80;;;12.30;;
60464;SDS011;46314;52.392;9.758;2022-08-16T02:30:22;14.20;;;12.90;;
60464;SDS011;46314;52.392;9.758;2022-08-16T02:33:09;13.60;;;12.18;;
60464;SDS011;46314;52.392;9.758;2022-08-16T02:35:36;14.43;;;12.85;;
60464;SDS011;46314;52.392;9.758;2022-08-16T02:38:20;13.52;;;12.15;;
60464;SDS011;46314;52.392;9.758;2022-08-16T02:40:47;15.45;;;13.05;;
60464;SDS011;46314;52.392;9.758;2022-08-16T02:43:13;13.10;;;11.80;;
60464;SDS011;46314;52.392;9.758;2022-08-16T02:45:40;13.27;;;11.90;;
60464;SDS011;46314;52.392;9.758;2022-08-16T02:48:08;13.20;;;11.85;;
60464;SDS011;46314;52.392;9.758;2022-08-16T02:50:55;13.75;;;12.30;;
60464;SDS011;46314;52.392;9.758;2022-08-16T02:53:38;13.57;;;11.63;;
60464;SDS011;46314;52.392;9.758;2022-08-16T02:56:13;13.48;;;12.02;;
60464;SDS011;46314;52.392;9.758;2022-08-16T02:58:45;13.88;;;12.52;;
60464;SDS011;46314;52.392;9.758;2022-08-16T03:01:15;13.73;;;12.38;;
60464;SDS011;46314;52.392;9.758;2022-08-16T03:03:59;15.07;;;13.50;;
60464;SDS011;46314;52.392;9.758;2022-08-16T03:06:47;13.50;;;12.13;;
60464;SDS011;46314;52.392;9.758;2022-08-16T03:09:15;14.73;;;13.23;;
60464;SDS011;46314;52.392;9.758;2022-08-16T03:11:43;14.60;;;13.15;;
60464;SDS011;46314;52.392;9.758;2022-08-16T03:14:10;13.88;;;12.40;;
60464;SDS011;46314;52.392;9.758;2022-08-16T03:16:38;14.50;;;13.20;;
60464;SDS011;46314;52.392;9.758;2022-08-16T03:19:24;13.73;;;12.38;;
60464;SDS011;46314;52.392;9.758;2022-08-16T03:22:11;13.60;;;12.20;;
60464;SDS011;46314;52.392;9.758;2022-08-16T03:24:44;16.02;;;14.38;;
60464;SDS011;46314;52.392;9.758;2022-08-16T03:27:11;14.07;;;12.77;;
60464;SDS011;46314;52.392;9.758;2022-08-16T03:29:38;14.60;;;13.15;;
60464;SDS011;46314;52.392;9.758;2022-08-16T03:32:19;14.77;;;13.23;;
60464;SDS011;46314;52.392;9.758;2022-08-16T03:34:45;14.52;;;12.88;;
60464;SDS011;46314;52.392;9.758;2022-08-16T03:37:15;15.40;;;13.93;;
60464;SDS011;46314;52.392;9.758;2022-08-16T03:39:42;14.73;;;13.27;;
60464;SDS011;46314;52.392;9.758;2022-08-16T03:42:08;14.27;;;12.88;;
60464;SDS011;46314;52.392;9.758;2022-08-16T03:44:35;14.23;;;12.80;;
60464;SDS011;46314;52.392;9.758;2022-08-16T03:47:10;14.15;;;12.63;;
60464;SDS011;46314;52.392;9.758;2022-08-16T03:49:37;14.55;;;13.15;;
60464;SDS011;46314;52.392;9.758;2022-08-16T03:52:03;15.18;;;13.50;;
60464;SDS011;46314;52.392;9.758;2022-08-16T03:54:30;14.65;;;13.18;;
60464;SDS011;46314;52.392;9.758;2022-08-16T03:57:00;13.98;;;12.50;;
60464;SDS011;46314;52.392;9.758;2022-08-16T03:59:30;14.10;;;12.70;;
60464;SDS011;46314;52.392;9.758;2022-08-16T04:02:00;12.73;;;11.45;;
60464;SDS011;46314;52.392;9.758;2022-08-16T04:04:28;14.65;;;12.65;;
60464;SDS011;46314;52.392;9.758;2022-08-16T04:06:59;14.38;;;13.07;;
60464;SDS011;46314;52.392;9.758;2022-08-16T04:09:32;14.32;;;12.80;;
60464;SDS011;46314;52.392;9.758;2022-08-16T04:12:02;13.60;;;12.18;;
60464;SDS011;46314;52.392;9.758;2022-08-16T04:14:36;14.77;;;12.95;;
60464;SDS011;46314;52.392;9.758;2022-08-16T04:17:12;13.73;;;12.43;;
60464;SDS011;46314;52.392;9.758;2022-08-16T04:19:40;13.70;;;12.25;;
60464;SDS011;46314;52.392;9.758;2022-08-16T04:22:11;15.50;;;12.48;;
60464;SDS011;46314;52.392;9.758;2022-08-16T04:24:38;15.77;;;11.95;;
60464;SDS011;46314;52.392;9.758;2022-08-16T04:27:05;14.07;;;12.63;;
60464;SDS011;46314;52.392;9.758;2022-08-16T04:29:34;14.77;;;13.35;;
60464;SDS011;46314;52.392;9.758;2022-08-16T04:32:11;13.45;;;12.15;;
60464;SDS011;46314;52.392;9.758;2022-08-16T04:34:39;14.52;;;12.60;;
60464;SDS011;46314;52.392;9.758;2022-08-16T04:37:05;13.60;;;12.32;;
60464;SDS011;46314;52.392;9.758;2022-08-16T04:39:32;14.52;;;12.90;;
60464;SDS011;46314;52.392;9.758;2022-08-16T04:42:13;14.68;;;12.75;;
60464;SDS011;46314;52.392;9.758;2022-08-16T04:44:41;14.30;;;12.85;;
60464;SDS011;46314;52.392;9.758;2022-08-16T04:47:20;14.85;;;13.32;;
60464;SDS011;46314;52.392;9.758;2022-08-16T04:49:50;15.18;;;13.13;;
60464;SDS011;46314;52.392;9.758;2022-08-16T04:52:18;14.80;;;13.35;;
60464;SDS011;46314;52.392;9.758;2022-08-16T04:54:59;14.98;;;12.43;;
60464;SDS011;46314;52.392;9.758;2022-08-16T04:57:28;14.80;;;12.65;;
60464;SDS011;46314;52.392;9.758;2022-08-16T04:59:55;13.65;;;12.02;;
60464;SDS011;46314;52.392;9.758;2022-08-16T05:02:21;14.27;;;12.80;;
60464;SDS011;46314;52.392;9.758;2022-08-16T05:05:08;13.60;;;12.30;;
60464;SDS011;46314;52.392;9.758;2022-08-16T05:07:43;14.88;;;13.38;;
60464;SDS011;46314;52.392;9.758;2022-08-16T05:10:23;14.43;;;12.25;;
60464;SDS011;46314;52.392;9.758;2022-08-16T05:12:49;16.23;;;12.98;;
60464;SDS011;46314;52.392;9.758;2022-08-16T05:15:17;13.60;;;12.15;;
60464;SDS011;46314;52.392;9.758;2022-08-16T05:17:45;12.77;;;11.57;;
60464;SDS011;46314;52.392;9.758;2022-08-16T05:20:12;13.20;;;11.75;;
60464;SDS011;46314;52.392;9.758;2022-08-16T05:22:58;13.50;;;12.13;;
60464;SDS011;46314;52.392;9.758;2022-08-16T05:25:25;13.80;;;11.68;;
60464;SDS011;46314;52.392;9.758;2022-08-16T05:28:12;12.27;;;11.07;;
60464;SDS011;46314;52.392;9.758;2022-08-16T05:30:38;13.77;;;11.63;;
60464;SDS011;46314;52.392;9.758;2022-08-16T05:33:08;13.70;;;12.30;;
60464;SDS011;46314;52.392;9.758;2022-08-16T05:35:42;13.82;;;12.38;;
60464;SDS011;46314;52.392;9.758;2022-08-16T05:38:08;14.18;;;11.80;;
60464;SDS011;46314;52.392;9.758;2022-08-16T05:40:58;13.65;;;12.35;;
60464;SDS011;46314;52.392;9.758;2022-08-16T05:43:27;13.82;;;12.38;;
60464;SDS011;46314;52.392;9.758;2022-08-16T05:46:07;14.13;;;12.18;;
60464;SDS011;46314;52.392;9.758;2022-08-16T05:48:56;14.68;;;11.65;;
60464;SDS011;46314;52.392;9.758;2022-08-16T05:51:30;13.93;;;12.63;;
60464;SDS011;46314;52.392;9.758;2022-08-16T05:54:05;14.60;;;12.75;;
60464;SDS011;46314;52.392;9.758;2022-08-16T05:56:32;12.02;;;10.82;;
60464;SDS011;46314;52.392;9.758;2022-08-16T05:59:03;12.48;;;11.15;;
60464;SDS011;46314;52.392;9.758;2022-08-16T06:01:32;12.63;;;11.23;;
60464;SDS011;46314;52.392;9.758;2022-08-16T06:04:04;12.93;;;11.63;;
60464;SDS011;46314;52.392;9.758;2022-08-16T06:06:38;14.75;;;11.85;;
60464;SDS011;46314;52.392;9.758;2022-08-16T06:09:09;12.18;;;10.98;;
60464;SDS011;46314;52.392;9.758;2022-08-16T06:11:39;12.20;;;11.00;;
60464;SDS011;46314;52.392;9.758;2022-08-16T06:14:08;12.15;;;11.00;;
60464;SDS011;46314;52.392;9.758;2022-08-16T06:16:35;13.00;;;11.60;;
60464;SDS011;46314;52.392;9.758;2022-08-16T06:19:02;11.57;;;10.48;;
60464;SDS011;46314;52.392;9.758;2022-08-16T06:21:30;11.32;;;9.75;;
60464;SDS011;46314;52.392;9.758;2022-08-16T06:24:02;16.38;;;10.57;;
60464;SDS011;46314;52.392;9.758;2022-08-16T06:26:48;11.07;;;9.98;;
60464;SDS011;46314;52.392;9.758;2022-08-16T06:29:23;12.02;;;10.02;;
60464;SDS011;46314;52.392;9.758;2022-08-16T06:31:50;12.60;;;10.00;;
60464;SDS011;46314;52.392;9.758;2022-08-16T06:34:17;9.65;;;8.63;;
60464;SDS011;46314;52.392;9.758;2022-08-16T06:37:04;12.20;;;9.07;;
60464;SDS011;46314;52.392;9.758;2022-08-16T06:39:32;13.23;;;10.43;;
60464;SDS011;46314;52.392;9.758;2022-08-16T06:42:14;12.02;;;10.20;;
60464;SDS011;46314;52.392;9.758;2022-08-16T06:44:44;10.93;;;9.35;;
60464;SDS011;46314;52.392;9.758;2022-08-16T06:47:11;8.88;;;8.07;;
60464;SDS011;46314;52.392;9.758;2022-08-16T06:49:42;9.95;;;8.88;;
60464;SDS011;46314;52.392;9.758;2022-08-16T06:52:18;10.95;;;8.52;;
60464;SDS011;46314;52.392;9.758;2022-08-16T06:55:05;9.55;;;7.88;;
60464;SDS011;46314;52.392;9.758;2022-08-16T06:57:38;7.32;;;6.72;;
60464;SDS011;46314;52.392;9.758;2022-08-16T07:00:06;9.80;;;7.60;;
60464;SDS011;46314;52.392;9.758;2022-08-16T07:02:50;8.00;;;7.30;;
60464;SDS011;46314;52.392;9.758;2022-08-16T07:05:17;9.68;;;7.85;;
60464;SDS011;46314;52.392;9.758;2022-08-16T07:07:45;9.18;;;7.75;;
60464;SDS011;46314;52.392;9.758;2022-08-16T07:10:16;8.20;;;7.35;;
60464;SDS011;46314;52.392;9.758;2022-08-16T07:12:51;8.20;;;7.40;;
60464;SDS011;46314;52.392;9.758;2022-08-16T07:15:33;11.25;;;8.38;;
60464;SDS011;46314;52.392;9.758;2022-08-16T07:18:00;9.27;;;8.35;;
60464;SDS011;46314;52.392;9.758;2022-08-16T07:20:29;7.60;;;6.90;;
60464;SDS011;46314;52.392;9.758;2022-08-16T07:23:13;9.65;;;7.75;;
60464;SDS011;46314;52.392;9.758;2022-08-16T07:25:40;9.65;;;7.30;;
60464;SDS011;46314;52.392;9.758;2022-08-16T07:28:07;7.63;;;6.88;;
60464;SDS011;46314;52.392;9.758;2022-08-16T07:30:37;8.00;;;7.13;;
60464;SDS011;46314;52.392;9.758;2022-08-16T07:33:12;8.60;;;7.55;;
60464;SDS011;46314;52.392;9.758;2022-08-16T07:35:41;7.95;;;7.25;;
60464;SDS011;46314;52.392;9.758;2022-08-16T07:38:14;7.25;;;6.55;;
60464;SDS011;46314;52.392;9.758;2022-08-16T07:40:45;7.97;;;6.65;;
60464;SDS011;46314;52.392;9.758;2022-08-16T07:43:26;7.28;;;6.22;;
60464;SDS011;46314;52.392;9.758;2022-08-16T07:45:54;8.45;;;6.65;;
60464;SDS011;46314;52.392;9.758;2022-08-16T07:48:21;7.50;;;6.80;;
60464;SDS011;46314;52.392;9.758;2022-08-16T07:50:49;7.47;;;6.18;;
60464;SDS011;46314;52.392;9.758;2022-08-16T07:53:23;8.18;;;6.47;;
60464;SDS011;46314;52.392;9.758;2022-08-16T07:55:53;6.85;;;6.07;;
60464;SDS011;46314;52.392;9.758;2022-08-16T07:58:20;8.60;;;6.68;;
60464;SDS011;46314;52.392;9.758;2022-08-16T08:01:04;7.47;;;6.88;;
60464;SDS011;46314;52.392;9.758;2022-08-16T08:03:38;10.20;;;6.90;;
60464;SDS011;46314;52.392;9.758;2022-08-16T08:06:14;7.10;;;6.50;;
60464;SDS011;46314;52.392;9.758;2022-08-16T08:08:42;6.93;;;5.57;;
60464;SDS011;46314;52.392;9.758;2022-08-16T08:11:17;11.85;;;6.32;;
60464;SDS011;46314;52.392;9.758;2022-08-16T08:13:46;6.80;;;6.10;;
60464;SDS011;46314;52.392;9.758;2022-08-16T08:16:15;6.85;;;6.15;;
60464;SDS011;46314;52.392;9.758;2022-08-16T08:18:44;9.63;;;6.45;;
60464;SDS011;46314;52.392;9.758;2022-08-16T08:21:22;7.28;;;5.93;;
60464;SDS011;46314;52.392;9.758;2022-08-16T08:23:52;7.90;;;5.85;;
60464;SDS011;46314;52.392;9.758;2022-08-16T08:26:19;6.07;;;5.47;;
60464;SDS011;46314;52.392;9.758;2022-08-16T08:28:46;6.35;;;5.85;;
60464;SDS011;46314;52.392;9.758;2022-08-16T08:31:12;8.15;;;6.22;;
60464;SDS011;46314;52.392;9.758;2022-08-16T08:33:42;10.60;;;5.90;;
60464;SDS011;46314;52.392;9.758;2022-08-16T08:36:14;6.55;;;5.97;;
60464;SDS011;46314;52.392;9.758;2022-08-16T08:38:58;6.25;;;5.65;;
60464;SDS011;46314;52.392;9.758;2022-08-16T08:41:24;6.70;;;6.00;;
60464;SDS011;46314;52.392;9.758;2022-08-16T08:43:54;8.55;;;5.63;;
60464;SDS011;46314;52.392;9.758;2022-08-16T08:46:22;8.65;;;6.68;;
60464;SDS011;46314;52.392;9.758;2022-08-16T08:48:50;6.13;;;5.53;;
60464;SDS011;46314;52.392;9.758;2022-08-16T08:51:25;7.35;;;5.60;;
60464;SDS011;46314;52.392;9.758;2022-08-16T08:53:57;6.28;;;5.65;;
60464;SDS011;46314;52.392;9.758;2022-08-16T08:56:23;6.35;;;5.63;;
60464;SDS011;46314;52.392;9.758;2022-08-16T08:58:51;6.35;;;5.53;;
60464;SDS011;46314;52.392;9.758;2022-08-16T09:01:28;5.75;;;5.25;;
60464;SDS011;46314;52.392;9.758;2022-08-16T09:04:08;7.38;;;5.97;;
60464;SDS011;46314;52.392;9.758;2022-08-16T09:06:40;6.25;;;5.65;;
60464;SDS011;46314;52.392;9.758;2022-08-16T09:09:09;6.25;;;5.40;;
60464;SDS011;46314;52.392;9.758;2022-08-16T09:11:42;5.93;;;5.28;;
60464;SDS011;46314;52.392;9.758;2022-08-16T09:14:13;6.18;;;5.50;;
60464;SDS011;46314;52.392;9.758;2022-08-16T09:16:50;9.57;;;5.35;;
60464;SDS011;46314;52.392;9.758;2022-08-16T09:19:31;6.40;;;5.80;;
60464;SDS011;46314;52.392;9.758;2022-08-16T09:21:59;5.80;;;4.97;;
60464;SDS011;46314;52.392;9.758;2022-08-16T09:24:25;7.38;;;5.55;;
60464;SDS011;46314;52.392;9.758;2022-08-16T09:27:12;5.63;;;5.13;;
60464;SDS011;46314;52.392;9.758;2022-08-16T09:29:38;5.68;;;5.00;;
60464;SDS011;46314;52.392;9.758;2022-08-16T09:32:11;6.70;;;5.20;;
60464;SDS011;46314;52.392;9.758;2022-08-16T09:34:37;7.32;;;5.82;;
60464;SDS011;46314;52.392;9.758;2022-08-16T09:37:04;6.68;;;5.43;;
60464;SDS011;46314;52.392;9.758;2022-08-16T09:39:43;7.90;;;4.90;;
60464;SDS011;46314;52.392;9.758;2022-08-16T09:42:15;6.00;;;5.22;;
60464;SDS011;46314;52.392;9.758;2022-08-16T09:44:44;5.50;;;5.00;;
60464;SDS011;46314;52.392;9.758;2022-08-16T09:47:30;5.50;;;5.00;;
60464;SDS011;46314;52.392;9.758;2022-08-16T09:50:16;4.70;;;4.30;;
60464;SDS011;46314;52.392;9.758;2022-08-16T09:52:48;5.95;;;4.80;;
60464;SDS011;46314;52.392;9.758;2022-08-16T09:55:14;6.07;;;5.03;;
60464;SDS011;46314;52.392;9.758;2022-08-16T09:57:41;5.45;;;4.95;;
60464;SDS011;46314;52.392;9.758;2022-08-16T10:00:18;7.93;;;5.40;;
60464;SDS011;46314;52.392;9.758;2022-08-16T10:03:04;5.85;;;5.20;;
60464;SDS011;46314;52.392;9.758;2022-08-16T10:05:34;5.40;;;4.90;;
60464;SDS011;46314;52.392;9.758;2022-08-16T10:08:00;5.25;;;4.85;;
60464;SDS011;46314;52.392;9.758;2022-08-16T10:10:46;6.35;;;5.03;;
60464;SDS011;46314;52.392;9.758;2022-08-16T10:13:13;5.25;;;4.75;;
60464;SDS011;46314;52.392;9.758;2022-08-16T10:15:43;7.22;;;4.75;;
60464;SDS011;46314;52.392;9.758;2022-08-16T10:18:21;5.25;;;4.85;;
60464;SDS011;46314;52.392;9.758;2022-08-16T10:21:07;6.40;;;5.53;;
60464;SDS011;46314;52.392;9.758;2022-08-16T10:23:34;6.63;;;5.25;;
60464;SDS011;46314;52.392;9.758;2022-08-16T10:26:00;7.20;;;5.47;;
60464;SDS011;46314;52.392;9.758;2022-08-16T10:28:47;5.70;;;5.10;;
60464;SDS011;46314;52.392;9.758;2022-08-16T10:31:15;7.15;;;4.85;;
60464;SDS011;46314;52.392;9.758;2022-08-16T10:34:02;5.93;;;5.05;;
60464;SDS011;46314;52.392;9.758;2022-08-16T10:36:28;5.78;;;5.22;;
60464;SDS011;46314;52.392;9.758;2022-08-16T10:39:05;6.50;;;5.57;;
60464;SDS011;46314;52.392;9.758;2022-08-16T10:41:33;6.28;;;5.68;;
60464;SDS011;46314;52.392;9.758;2022-08-16T10:44:00;10.25;;;5.55;;
60464;SDS011;46314;52.392;9.758;2022-08-16T10:46:27;10.18;;;5.35;;
60464;SDS011;46314;52.392;9.758;2022-08-16T10:49:07;6.75;;;4.72;;
60464;SDS011;46314;52.392;9.758;2022-08-16T10:51:35;6.38;;;5.32;;
60464;SDS011;46314;52.392;9.758;2022-08-16T10:54:21;5.40;;;4.90;;
60464;SDS011;46314;52.392;9.758;2022-08-16T10:56:55;7.70;;;6.47;;
60464;SDS011;46314;52.392;9.758;2022-08-16T10:59:26;7.88;;;6.70;;
60464;SDS011;46314;52.392;9.758;2022-08-16T11:02:04;7.38;;;5.10;;
60464;SDS011;46314;52.392;9.758;2022-08-16T11:04:50;7.13;;;5.13;;
60464;SDS011;46314;52.392;9.758;2022-08-16T11:07:34;6.38;;;5.85;;
60464;SDS011;46314;52.392;9.758;2022-08-16T11:10:24;6.10;;;5.47;;
60464;SDS011;46314;52.392;9.758;2022-08-16T11:13:17;8.13;;;4.38;;
60464;SDS011;46314;52.392;9.758;2022-08-16T11:16:06;6.15;;;5.30;;
60464;SDS011;46314;52.392;9.758;2022-08-16T11:18:54;7.88;;;5.10;;
60464;SDS011;46314;52.392;9.758;2022-08-16T11:21:31;5.07;;;4.60;;
60464;SDS011;46314;52.392;9.758;2022-08-16T11:24:00;5.50;;;5.03;;
60464;SDS011;46314;52.392;9.758;2022-08-16T11:26:27;6.40;;;4.78;;
60464;SDS011;46314;52.392;9.758;2022-08-16T11:28:54;5.68;;;4.97;;
60464;SDS011;46314;52.392;9.758;2022-08-16T11:31:41;5.03;;;4.63;;
60464;SDS011;46314;52.392;9.758;2022-08-16T11:34:14;5.25;;;4.43;;
60464;SDS011;46314;52.392;9.758;2022-08-16T11:36:46;5.45;;;4.47;;
60464;SDS011;46314;52.392;9.758;2022-08-16T11:39:25;7.50;;;4.63;;
60464;SDS011;46314;52.392;9.758;2022-08-16T11:41:53;4.95;;;4.55;;
60464;SDS011;46314;52.392;9.758;2022-08-16T11:44:21;5.82;;;4.82;;
60464;SDS011;46314;52.392;9.758;2022-08-16T11:47:07;5.03;;;4.53;;
60464;SDS011;46314;52.392;9.758;2022-08-16T11:49:33;6.28;;;5.30;;
60464;SDS011;46314;52.392;9.758;2022-08-16T11:52:00;5.57;;;4.82;;
60464;SDS011;46314;52.392;9.758;2022-08-16T11:54:28;5.60;;;4.72;;
60464;SDS011;46314;52.392;9.758;2022-08-16T11:57:02;5.57;;;5.07;;
60464;SDS011;46314;52.392;9.758;2022-08-16T11:59:34;5.57;;;4.95;;
60464;SDS011;46314;52.392;9.758;2022-08-16T12:02:05;6.90;;;4.95;;
60464;SDS011;46314;52.392;9.758;2022-08-16T12:04:52;5.53;;;4.97;;
60464;SDS011;46314;52.392;9.758;2022-08-16T12:07:19;9.23;;;5.13;;
60464;SDS011;46314;52.392;9.758;2022-08-16T12:09:49;5.60;;;4.85;;
60464;SDS011;46314;52.392;9.758;2022-08-16T12:12:18;4.60;;;4.20;;
60464;SDS011;46314;52.392;9.758;2022-08-16T12:14:44;5.70;;;4.55;;
60464;SDS011;46314;52.392;9.758;2022-08-16T12:17:11;5.75;;;5.13;;
60464;SDS011;46314;52.392;9.758;2022-08-16T12:19:37;5.80;;;4.90;;
60464;SDS011;46314;52.392;9.758;2022-08-16T12:22:03;4.50;;;4.10;;
60464;SDS011;46314;52.392;9.758;2022-08-16T12:24:45;5.75;;;5.25;;
60464;SDS011;46314;52.392;9.758;2022-08-16T12:27:17;5.78;;;5.28;;
60464;SDS011;46314;52.392;9.758;2022-08-16T12:29:48;7.68;;;5.43;;
60464;SDS011;46314;52.392;9.758;2022-08-16T12:32:16;6.32;;;5.57;;
60464;SDS011;46314;52.392;9.758;2022-08-16T12:35:02;7.22;;;5.95;;
60464;SDS011;46314;52.392;9.758;2022-08-16T12:37:30;5.97;;;5.43;;
60464;SDS011;46314;52.392;9.758;2022-08-16T12:39:56;5.25;;;4.60;;
60464;SDS011;46314;52.392;9.758;2022-08-16T12:42:23;7.88;;;5.32;;
60464;SDS011;46314;52.392;9.758;2022-08-16T12:45:01;8.38;;;5.88;;
60464;SDS011;46314;52.392;9.758;2022-08-16T12:47:30;6.85;;;5.38;;
60464;SDS011;46314;52.392;9.758;2022-08-16T12:49:57;5.60;;;5.07;;
60464;SDS011;46314;52.392;9.758;2022-08-16T12:52:23;5.60;;;5.10;;
60464;SDS011;46314;52.392;9.758;2022-08-16T12:54:59;5.10;;;4.45;;
60464;SDS011;46314;52.392;9.758;2022-08-16T12:57:26;7.78;;;5.43;;
60464;SDS011;46314;52.392;9.758;2022-08-16T13:00:03;8.65;;;5.20;;
60464;SDS011;46314;52.392;9.758;2022-08-16T13:02:33;5.90;;;5.30;;
60464;SDS011;46314;52.392;9.758;2022-08-16T13:05:01;5.82;;;5.32;;
60464;SDS011;46314;52.392;9.758;2022-08-16T13:07:32;6.57;;;5.10;;
60464;SDS011;46314;52.392;9.758;2022-08-16T13:10:11;5.40;;;4.90;;
60464;SDS011;46314;52.392;9.758;2022-08-16T13:12:49;5.90;;;4.80;;
60464;SDS011;46314;52.392;9.758;2022-08-16T13:15:17;5.93;;;5.43;;
60464;SDS011;46314;52.392;9.758;2022-08-16T13:17:49;5.85;;;5.22;;
60464;SDS011;46314;52.392;9.758;2022-08-16T13:20:17;5.38;;;4.88;;
60464;SDS011;46314;52.392;9.758;2022-08-16T13:22:52;5.53;;;5.03;;
60464;SDS011;46314;52.392;9.758;2022-08-16T13:25:24;5.10;;;4.70;;
60464;SDS011;46314;52.392;9.758;2022-08-16T13:27:53;5.45;;;4.97;;
60464;SDS011;46314;52.392;9.758;2022-08-16T13:30:30;8.90;;;8.00;;
60464;SDS011;46314;52.392;9.758;2022-08-16T13:33:07;7.07;;;5.97;;
60464;SDS011;46314;52.392;9.758;2022-08-16T13:35:38;6.10;;;4.90;;
60464;SDS011;46314;52.392;9.758;2022-08-16T13:38:08;5.78;;;5.28;;
60464;SDS011;46314;52.392;9.758;2022-08-16T13:40:36;6.05;;;4.80;;
60464;SDS011;46314;52.392;9.758;2022-08-16T13:43:02;5.72;;;5.22;;
60464;SDS011;46314;52.392;9.758;2022-08-16T13:45:29;6.53;;;5.93;;
60464;SDS011;46314;52.392;9.758;2022-08-16T13:48:02;7.78;;;5.90;;
60464;SDS011;46314;52.392;9.758;2022-08-16T13:50:30;6.63;;;4.80;;
60464;SDS011;46314;52.392;9.758;2022-08-16T13:53:17;5.47;;;4.97;;
60464;SDS011;46314;52.392;9.758;2022-08-16T13:55:49;6.83;;;5.37;;
60464;SDS011;46314;52.392;9.758;2022-08-16T13:58:24;5.85;;;5.00;;
60464;SDS011;46314;52.392;9.758;2022-08-16T14:01:02;6.57;;;5.15;;
60464;SDS011;46314;52.392;9.758;2022-08-16T14:03:35;6.60;;;5.78;;
60464;SDS011;46314;52.392;9.758;2022-08-16T14:06:02;6.07;;;5.57;;
60464;SDS011;46314;52.392;9.758;2022-08-16T14:08:28;6.18;;;5.28;;
60464;SDS011;46314;52.392;9.758;2022-08-16T14:10:55;8.20;;;5.35;;
60464;SDS011;46314;52.392;9.758;2022-08-16T14:13:21;6.10;;;5.50;;
60464;SDS011;46314;52.392;9.758;2022-08-16T14:15:48;5.45;;;5.05;;
60464;SDS011;46314;52.392;9.758;2022-08-16T14:18:15;4.93;;;4.47;;
60464;SDS011;46314;52.392;9.758;2022-08-16T14:20:46;5.72;;;5.22;;
60464;SDS011;46314;52.392;9.758;2022-08-16T14:23:14;5.15;;;4.65;;
60464;SDS011;46314;52.392;9.758;2022-08-16T14:25:40;5.97;;;5.40;;
60464;SDS011;46314;52.392;9.758;2022-08-16T14:28:06;6.03;;;5.45;;
60464;SDS011;46314;52.392;9.758;2022-08-16T14:30:35;7.78;;;6.00;;
60464;SDS011;46314;52.392;9.758;2022-08-16T14:33:05;6.80;;;5.43;;
60464;SDS011;46314;52.392;9.758;2022-08-16T14:35:32;5.63;;;5.13;;
60464;SDS011;46314;52.392;9.758;2022-08-16T14:40:44;7.53;;;5.00;;
60464;SDS011;46314;52.392;9.758;2022-08-16T14:43:19;5.22;;;4.72;;
60464;SDS011;46314;52.392;9.758;2022-08-16T14:45:46;5.80;;;5.20;;
60464;SDS011;46314;52.392;9.758;2022-08-16T14:48:16;5.82;;;5.15;;
60464;SDS011;46314;52.392;9.758;2022-08-16T14:50:50;6.10;;;5.60;;
60464;SDS011;46314;52.392;9.758;2022-08-16T14:53:16;5.35;;;4.85;;
60464;SDS011;46314;52.392;9.758;2022-08-16T14:55:43;6.63;;;5.43;;
60464;SDS011;46314;52.392;9.758;2022-08-16T14:58:09;5.93;;;5.15;;
60464;SDS011;46314;52.392;9.758;2022-08-16T15:00:45;5.50;;;5.00;;
60464;SDS011;46314;52.392;9.758;2022-08-16T15:03:16;5.63;;;5.18;;
60464;SDS011;46314;52.392;9.758;2022-08-16T15:05:46;5.90;;;5.40;;
60464;SDS011;46314;52.392;9.758;2022-08-16T15:08:13;6.43;;;5.78;;
60464;SDS011;46314;52.392;9.758;2022-08-16T15:10:43;5.22;;;4.82;;
60464;SDS011;46314;52.392;9.758;2022-08-16T15:13:11;7.60;;;5.57;;
60464;SDS011;46314;52.392;9.758;2022-08-16T15:15:40;6.45;;;5.13;;
60464;SDS011;46314;52.392;9.758;2022-08-16T15:18:08;7.90;;;5.00;;